createdAt,value
2022-11-05T00:01:06.411Z,11.76
2022-11-05T00:03:48.968Z,11.74
2022-11-05T00:06:31.539Z,11.73
2022-11-05T00:09:13.908Z,11.72
2022-11-05T00:11:56.187Z,11.71
2022-11-05T00:14:38.916Z,11.72
2022-11-05T00:17:05.618Z,11.74
2022-11-05T00:19:32.272Z,11.75
2022-11-05T00:22:14.580Z,11.73
2022-11-05T00:24:57.003Z,11.68
2022-11-05T00:27:23.864Z,11.62
2022-11-05T00:29:50.543Z,11.58
2022-11-05T00:32:17.234Z,11.55
2022-11-05T00:34:43.934Z,11.52
2022-11-05T00:37:10.842Z,11.50
2022-11-05T00:39:37.571Z,11.45
2022-11-05T00:42:19.907Z,11.43
2022-11-05T00:45:02.466Z,11.40
2022-11-05T00:47:46.734Z,11.36
2022-11-05T00:50:15.041Z,11.34
2022-11-05T00:52:57.821Z,11.32
2022-11-05T00:55:30.037Z,11.29
2022-11-05T00:57:58.009Z,11.29
2022-11-05T01:00:27.932Z,11.26
2022-11-05T01:02:58.676Z,11.22
2022-11-05T01:05:25.427Z,11.12
2022-11-05T01:07:53.564Z,11.02
2022-11-05T01:10:21.758Z,10.92
2022-11-05T01:12:49.655Z,10.83
2022-11-05T01:15:17.318Z,10.75
2022-11-05T01:17:44.028Z,10.68
2022-11-05T01:20:11.353Z,10.64
2022-11-05T01:22:38.193Z,10.59
2022-11-05T01:25:05.381Z,10.55
2022-11-05T01:27:32.108Z,10.51
2022-11-05T01:29:58.854Z,10.47
2022-11-05T01:32:25.603Z,10.42
2022-11-05T01:34:52.270Z,10.40
2022-11-05T01:37:19.009Z,10.37
2022-11-05T01:39:45.784Z,10.33
2022-11-05T01:42:19.880Z,10.28
2022-11-05T01:44:53.393Z,10.24
2022-11-05T01:47:39.191Z,10.21
2022-11-05T01:50:24.589Z,10.17
2022-11-05T01:52:56.205Z,10.13
2022-11-05T01:55:29.055Z,10.10
2022-11-05T01:57:58.143Z,10.04
2022-11-05T02:00:25.166Z,10.01
2022-11-05T02:02:52.160Z,9.99
2022-11-05T02:05:19.034Z,9.95
2022-11-05T02:07:47.597Z,9.91
2022-11-05T02:10:18.321Z,9.85
2022-11-05T02:12:48.311Z,9.81
2022-11-05T02:15:23.525Z,9.76
2022-11-05T02:17:55.388Z,9.72
2022-11-05T02:20:33.554Z,9.69
2022-11-05T02:23:30.707Z,9.65
2022-11-05T02:26:16.140Z,9.61
2022-11-05T02:29:04.630Z,9.58
2022-11-05T02:31:35.993Z,9.55
2022-11-05T02:34:23.160Z,9.52
2022-11-05T02:36:54.668Z,9.47
2022-11-05T02:39:51.793Z,9.45
2022-11-05T02:42:35.217Z,9.44
2022-11-05T02:45:17.454Z,9.42
2022-11-05T02:47:47.380Z,9.40
2022-11-05T02:50:22.585Z,9.38
2022-11-05T02:52:58.366Z,9.35
2022-11-05T02:55:33.100Z,9.33
2022-11-05T02:58:02.218Z,9.31
2022-11-05T03:00:47.009Z,9.31
2022-11-05T03:03:19.423Z,9.29
2022-11-05T03:06:00.184Z,9.25
2022-11-05T03:08:43.160Z,9.24
2022-11-05T03:11:16.675Z,9.24
2022-11-05T03:13:58.766Z,9.23
2022-11-05T03:16:39.101Z,9.21
2022-11-05T03:19:28.938Z,9.19
2022-11-05T03:22:01.673Z,9.19
2022-11-05T03:24:34.312Z,9.21
2022-11-05T03:27:07.332Z,9.20
2022-11-05T03:29:38.900Z,9.19
2022-11-05T03:32:08.157Z,9.18
2022-11-05T03:34:42.338Z,9.17
2022-11-05T03:37:09.635Z,9.18
2022-11-05T03:39:40.881Z,9.17
2022-11-05T03:42:11.651Z,9.15
2022-11-05T03:44:45.130Z,9.13
2022-11-05T03:47:18.960Z,9.14
2022-11-05T03:49:56.647Z,9.16
2022-11-05T03:52:27.953Z,9.19
2022-11-05T03:54:55.003Z,9.20
2022-11-05T03:57:31.668Z,9.20
2022-11-05T03:59:58.486Z,9.20
2022-11-05T04:02:26.804Z,9.20
2022-11-05T04:04:54.408Z,9.24
2022-11-05T04:07:36.508Z,9.26
2022-11-05T04:10:18.816Z,9.28
2022-11-05T04:13:01.273Z,9.28
2022-11-05T04:15:29.775Z,9.28
2022-11-05T04:17:59.028Z,9.29
2022-11-05T04:20:42.027Z,9.31
2022-11-05T04:23:25.398Z,9.32
2022-11-05T04:25:52.124Z,9.32
2022-11-05T04:28:19.091Z,9.30
2022-11-05T04:30:45.787Z,9.29
2022-11-05T04:33:15.383Z,9.29
2022-11-05T04:35:44.600Z,9.30
2022-11-05T04:38:16.251Z,9.30
2022-11-05T04:40:43.950Z,9.30
2022-11-05T04:43:15.331Z,9.28
2022-11-05T04:45:42.910Z,9.28
2022-11-05T04:48:10.768Z,9.29
2022-11-05T04:50:38.074Z,9.29
2022-11-05T04:53:04.753Z,9.29
2022-11-05T04:55:31.554Z,9.28
2022-11-05T04:57:58.263Z,9.28
2022-11-05T05:00:25.573Z,9.27
2022-11-05T05:02:52.328Z,9.24
2022-11-05T05:05:19.055Z,9.24
2022-11-05T05:07:45.798Z,9.23
2022-11-05T05:10:13.126Z,9.18
2022-11-05T05:12:39.947Z,9.14
2022-11-05T05:15:07.181Z,9.11
2022-11-05T05:17:34.171Z,9.11
2022-11-05T05:20:16.276Z,9.09
2022-11-05T05:22:43.006Z,9.05
2022-11-05T05:25:09.710Z,9.01
2022-11-05T05:27:36.529Z,8.99
2022-11-05T05:30:03.754Z,8.97
2022-11-05T05:32:30.491Z,8.96
2022-11-05T05:34:57.194Z,8.98
2022-11-05T05:37:23.941Z,9.01
2022-11-05T05:39:50.809Z,9.03
2022-11-05T05:42:17.544Z,9.02
2022-11-05T05:44:44.205Z,9.02
2022-11-05T05:47:10.944Z,9.04
2022-11-05T05:49:37.624Z,9.06
2022-11-05T05:52:04.559Z,9.09
2022-11-05T05:54:36.054Z,9.13
2022-11-05T05:57:06.594Z,9.16
2022-11-05T05:59:33.399Z,9.16
2022-11-05T06:02:00.881Z,9.17
2022-11-05T06:04:27.714Z,9.21
2022-11-05T06:06:54.433Z,9.27
2022-11-05T06:09:21.301Z,9.30
2022-11-05T06:11:48.084Z,9.33
2022-11-05T06:14:14.882Z,9.33
2022-11-05T06:16:41.578Z,9.31
2022-11-05T06:19:08.588Z,9.29
2022-11-05T06:21:35.761Z,9.28
2022-11-05T06:24:03.304Z,9.27
2022-11-05T06:26:30.500Z,9.30
2022-11-05T06:28:57.226Z,9.32
2022-11-05T06:31:24.418Z,9.32
2022-11-05T06:33:51.125Z,9.31
2022-11-05T06:36:19.700Z,9.29
2022-11-05T06:38:46.688Z,9.28
2022-11-05T06:41:13.671Z,9.28
2022-11-05T06:43:40.861Z,9.26
2022-11-05T06:46:08.002Z,9.31
2022-11-05T06:48:35.332Z,9.34
2022-11-05T06:51:03.234Z,9.33
2022-11-05T06:53:31.037Z,9.31
2022-11-05T06:55:57.776Z,9.31
2022-11-05T06:58:24.474Z,9.31
2022-11-05T07:00:51.591Z,9.31
2022-11-05T07:03:18.560Z,9.36
2022-11-05T07:05:48.325Z,9.38
2022-11-05T07:08:16.180Z,9.37
2022-11-05T07:10:43.050Z,9.34
2022-11-05T07:13:09.921Z,9.34
2022-11-05T07:15:38.147Z,9.34
2022-11-05T07:18:07.560Z,9.35
2022-11-05T07:20:35.032Z,9.37
2022-11-05T07:23:04.671Z,9.38
2022-11-05T07:25:32.721Z,9.39
2022-11-05T07:27:59.571Z,9.39
2022-11-05T07:30:26.883Z,9.39
2022-11-05T07:32:53.706Z,9.42
2022-11-05T07:35:20.758Z,9.46
2022-11-05T07:37:50.070Z,9.49
2022-11-05T07:40:19.495Z,9.55
2022-11-05T07:42:48.913Z,9.56
2022-11-05T07:45:17.819Z,9.56
2022-11-05T07:47:54.278Z,9.56
2022-11-05T07:50:23.529Z,9.56
2022-11-05T07:52:50.484Z,9.54
2022-11-05T07:55:18.765Z,9.54
2022-11-05T07:57:48.967Z,9.57
2022-11-05T08:00:18.413Z,9.58
2022-11-05T08:02:45.403Z,9.59
2022-11-05T08:05:12.264Z,9.57
2022-11-05T08:07:38.979Z,9.55
2022-11-05T08:10:06.285Z,9.58
2022-11-05T08:12:33.804Z,9.60
2022-11-05T08:15:00.520Z,9.62
2022-11-05T08:17:27.346Z,9.64
2022-11-05T08:19:54.090Z,9.66
2022-11-05T08:22:20.822Z,9.69
2022-11-05T08:24:47.579Z,9.70
2022-11-05T08:27:14.879Z,9.66
2022-11-05T08:29:41.750Z,9.65
2022-11-05T08:32:08.447Z,9.63
2022-11-05T08:34:35.231Z,9.62
2022-11-05T08:37:02.202Z,9.65
2022-11-05T08:39:28.965Z,9.69
2022-11-05T08:41:55.880Z,9.73
2022-11-05T08:44:22.771Z,9.72
2022-11-05T08:46:49.884Z,9.70
2022-11-05T08:49:17.171Z,9.68
2022-11-05T08:51:44.951Z,9.64
2022-11-05T08:54:12.008Z,9.62
2022-11-05T08:56:39.254Z,9.56
2022-11-05T08:59:06.352Z,9.54
2022-11-05T09:01:34.350Z,9.55
2022-11-05T09:04:01.393Z,9.59
2022-11-05T09:06:28.954Z,9.61
2022-11-05T09:08:56.085Z,9.61
2022-11-05T09:11:33.165Z,9.59
2022-11-05T09:14:09.867Z,9.56
2022-11-05T09:16:37.105Z,9.54
2022-11-05T09:19:05.003Z,9.53
2022-11-05T09:21:31.871Z,9.56
2022-11-05T09:23:58.616Z,9.65
2022-11-05T09:26:25.601Z,9.74
2022-11-05T09:28:52.345Z,9.77
2022-11-05T09:31:19.220Z,9.76
2022-11-05T09:33:45.922Z,9.73
2022-11-05T09:36:12.604Z,9.74
2022-11-05T09:38:39.681Z,9.78
2022-11-05T09:41:13.169Z,9.84
2022-11-05T09:43:46.224Z,9.93
2022-11-05T09:46:42.918Z,10.02
2022-11-05T09:49:22.936Z,10.07
2022-11-05T09:52:06.534Z,10.06
2022-11-05T09:54:33.528Z,10.02
2022-11-05T09:57:02.968Z,10.00
2022-11-05T09:59:37.589Z,10.00
2022-11-05T10:02:20.625Z,10.04
2022-11-05T10:05:09.984Z,10.10
2022-11-05T10:07:47.736Z,10.18
2022-11-05T10:10:30.043Z,10.18
2022-11-05T10:13:01.685Z,10.09
2022-11-05T10:15:34.296Z,10.02
2022-11-05T10:18:16.836Z,9.98
2022-11-05T10:20:44.992Z,10.01
2022-11-05T10:23:16.222Z,10.08
2022-11-05T10:25:46.662Z,10.14
2022-11-05T10:28:17.965Z,10.22
2022-11-05T10:30:46.939Z,10.29
2022-11-05T10:33:31.254Z,10.30
2022-11-05T10:36:04.714Z,10.25
2022-11-05T10:38:31.644Z,10.18
2022-11-05T10:41:07.140Z,10.14
2022-11-05T10:43:40.969Z,10.17
2022-11-05T10:46:07.627Z,10.20
2022-11-05T10:49:05.318Z,10.25
2022-11-05T10:51:33.014Z,10.28
2022-11-05T10:54:06.361Z,10.28
2022-11-05T10:56:37.568Z,10.31
2022-11-05T10:59:11.878Z,10.26
2022-11-05T11:01:39.253Z,10.15
2022-11-05T11:04:15.919Z,10.10
2022-11-05T11:06:49.782Z,10.07
2022-11-05T11:09:21.963Z,10.09
2022-11-05T11:12:01.076Z,10.08
2022-11-05T11:14:28.729Z,10.13
2022-11-05T11:16:58.979Z,10.20
2022-11-05T11:19:32.008Z,10.21
2022-11-05T11:22:06.404Z,10.17
2022-11-05T11:24:50.285Z,10.13
2022-11-05T11:27:22.580Z,10.12
2022-11-05T11:29:55.074Z,10.17
2022-11-05T11:32:22.363Z,10.20
2022-11-05T11:34:53.111Z,10.23
2022-11-05T11:37:26.650Z,10.29
2022-11-05T11:39:58.234Z,10.35
2022-11-05T11:42:29.183Z,10.38
2022-11-05T11:44:59.310Z,10.39
2022-11-05T11:47:29.244Z,10.35
2022-11-05T11:49:58.909Z,10.33
2022-11-05T11:52:29.606Z,10.34
2022-11-05T11:55:12.023Z,10.39
2022-11-05T11:58:04.993Z,10.46
2022-11-05T12:00:38.546Z,10.49
2022-11-05T12:03:21.730Z,10.51
2022-11-05T12:06:01.838Z,10.53
2022-11-05T12:08:45.505Z,10.50
2022-11-05T12:11:24.369Z,10.42
2022-11-05T12:13:59.768Z,10.38
2022-11-05T12:16:49.799Z,10.37
2022-11-05T12:19:29.118Z,10.37
2022-11-05T12:22:12.541Z,10.39
2022-11-05T12:25:03.868Z,10.42
2022-11-05T12:27:51.661Z,10.44
2022-11-05T12:30:21.119Z,10.46
2022-11-05T12:33:03.408Z,10.44
2022-11-05T12:35:44.185Z,10.37
2022-11-05T12:38:44.362Z,10.31
2022-11-05T12:41:18.631Z,10.31
2022-11-05T12:43:46.338Z,10.32
2022-11-05T12:46:24.842Z,10.34
2022-11-05T12:49:06.802Z,10.40
2022-11-05T12:51:51.532Z,10.50
2022-11-05T12:54:49.060Z,10.57
2022-11-05T12:57:17.771Z,10.53
2022-11-05T12:59:56.944Z,10.52
2022-11-05T13:02:34.523Z,10.54
2022-11-05T13:05:12.450Z,10.62
2022-11-05T13:07:44.920Z,10.69
2022-11-05T13:10:39.743Z,10.76
2022-11-05T13:13:11.897Z,10.86
2022-11-05T13:15:53.361Z,10.94
2022-11-05T13:18:28.169Z,10.94
2022-11-05T13:20:56.590Z,10.88
2022-11-05T13:23:44.240Z,10.82
2022-11-05T13:26:19.824Z,10.75
2022-11-05T13:28:57.360Z,10.77
2022-11-05T13:31:32.735Z,10.82
2022-11-05T13:34:04.521Z,10.83
2022-11-05T13:36:54.065Z,10.81
2022-11-05T13:39:26.815Z,10.77
2022-11-05T13:42:09.443Z,10.74
2022-11-05T13:44:47.516Z,10.68
2022-11-05T13:47:29.551Z,10.59
2022-11-05T13:50:27.242Z,10.52
2022-11-05T13:53:11.130Z,10.43
2022-11-05T13:55:51.377Z,10.38
2022-11-05T13:58:48.897Z,10.37
2022-11-05T14:01:30.905Z,10.36
2022-11-05T14:03:57.774Z,10.34
2022-11-05T14:06:29.877Z,10.33
2022-11-05T14:09:00.771Z,10.31
2022-11-05T14:11:33.259Z,10.29
2022-11-05T14:14:05.088Z,10.26
2022-11-05T14:16:48.449Z,10.26
2022-11-05T14:19:18.481Z,10.26
2022-11-05T14:22:21.017Z,10.25
2022-11-05T14:24:47.984Z,10.26
2022-11-05T14:27:14.642Z,10.23
2022-11-05T14:29:44.061Z,10.21
2022-11-05T14:32:19.237Z,10.18
2022-11-05T14:35:00.724Z,10.14
2022-11-05T14:37:32.424Z,10.14
2022-11-05T14:40:22.962Z,10.09
2022-11-05T14:42:53.047Z,10.04
2022-11-05T14:45:27.186Z,10.01
2022-11-05T14:47:56.692Z,9.98
2022-11-05T14:50:40.710Z,9.94
2022-11-05T14:53:26.337Z,9.91
2022-11-05T14:56:11.026Z,9.89
2022-11-05T14:58:40.183Z,9.90
2022-11-05T15:01:08.518Z,9.88
2022-11-05T15:03:45.504Z,9.85
2022-11-05T15:06:32.707Z,9.81
2022-11-05T15:09:19.222Z,9.76
2022-11-05T15:11:58.730Z,9.73
2022-11-05T15:14:32.226Z,9.71
2022-11-05T15:17:12.623Z,9.70
2022-11-05T15:19:41.825Z,9.70
2022-11-05T15:22:20.673Z,9.70
2022-11-05T15:24:47.813Z,9.69
2022-11-05T15:27:23.330Z,9.69
2022-11-05T15:29:50.248Z,9.67
2022-11-05T15:32:18.848Z,9.64
2022-11-05T15:34:54.695Z,9.63
2022-11-05T15:37:25.526Z,9.63
2022-11-05T15:39:54.702Z,9.63
2022-11-05T15:42:25.450Z,9.63
2022-11-05T15:44:55.934Z,9.63
2022-11-05T15:47:25.793Z,9.64
2022-11-05T15:50:01.336Z,9.62
2022-11-05T15:52:36.197Z,9.62
2022-11-05T15:55:19.996Z,9.61
2022-11-05T15:57:51.302Z,9.60
2022-11-05T16:00:18.422Z,9.60
2022-11-05T16:02:54.678Z,9.61
2022-11-05T16:05:22.487Z,9.62
2022-11-05T16:07:49.432Z,9.62
2022-11-05T16:10:20.952Z,9.60
2022-11-05T16:12:47.751Z,9.59
2022-11-05T16:15:14.408Z,9.58
2022-11-05T16:17:58.526Z,9.61
2022-11-05T16:20:35.371Z,9.64
2022-11-05T16:23:08.591Z,9.66
2022-11-05T16:25:39.601Z,9.65
2022-11-05T16:28:23.477Z,9.63
2022-11-05T16:30:53.626Z,9.60
2022-11-05T16:33:20.472Z,9.59
2022-11-05T16:35:49.799Z,9.59
2022-11-05T16:38:18.035Z,9.59
2022-11-05T16:40:44.872Z,9.59
2022-11-05T16:43:22.646Z,9.60
2022-11-05T16:45:49.768Z,9.59
2022-11-05T16:48:16.588Z,9.59
2022-11-05T16:50:43.528Z,9.57
2022-11-05T16:53:10.334Z,9.54
2022-11-05T16:55:39.730Z,9.52
2022-11-05T16:58:11.352Z,9.51
2022-11-05T17:00:38.821Z,9.49
2022-11-05T17:03:05.632Z,9.47
2022-11-05T17:05:32.580Z,9.44
2022-11-05T17:08:01.233Z,9.44
2022-11-05T17:10:27.990Z,9.42
2022-11-05T17:12:54.730Z,9.41
2022-11-05T17:15:27.419Z,9.39
2022-11-05T17:17:55.288Z,9.39
2022-11-05T17:20:28.772Z,9.42
2022-11-05T17:22:56.523Z,9.45
2022-11-05T17:25:23.771Z,9.46
2022-11-05T17:27:51.194Z,9.47
2022-11-05T17:30:18.226Z,9.46
2022-11-05T17:32:45.065Z,9.46
2022-11-05T17:35:12.427Z,9.47
2022-11-05T17:37:39.482Z,9.47
2022-11-05T17:40:08.996Z,9.49
2022-11-05T17:42:35.743Z,9.52
2022-11-05T17:45:02.661Z,9.53
2022-11-05T17:47:29.931Z,9.50
2022-11-05T17:49:56.818Z,9.45
2022-11-05T17:52:23.582Z,9.42
2022-11-05T17:54:50.576Z,9.40
2022-11-05T17:57:17.496Z,9.38
2022-11-05T17:59:44.677Z,9.35
2022-11-05T18:02:12.224Z,9.36
2022-11-05T18:04:39.760Z,9.33
2022-11-05T18:07:07.325Z,9.30
2022-11-05T18:09:34.114Z,9.29
2022-11-05T18:12:00.797Z,9.26
2022-11-05T18:14:27.490Z,9.25
2022-11-05T18:16:59.208Z,9.24
2022-11-05T18:19:27.875Z,9.23
2022-11-05T18:21:55.966Z,9.25
2022-11-05T18:24:22.907Z,9.27
2022-11-05T18:26:50.301Z,9.31
2022-11-05T18:29:17.192Z,9.32
2022-11-05T18:31:43.905Z,9.32
2022-11-05T18:34:11.692Z,9.32
2022-11-05T18:36:38.765Z,9.31
2022-11-05T18:39:06.952Z,9.31
2022-11-05T18:41:33.699Z,9.33
2022-11-05T18:44:01.914Z,9.37
2022-11-05T18:46:56.653Z,9.40
2022-11-05T18:49:16.813Z,9.43
2022-11-05T18:51:43.798Z,9.43
2022-11-05T18:54:10.545Z,9.42
2022-11-05T18:56:39.575Z,9.41
2022-11-05T18:59:34.677Z,9.40
2022-11-05T19:01:53.369Z,9.40
2022-11-05T19:04:20.799Z,9.40
2022-11-05T19:06:49.718Z,9.40
2022-11-05T19:09:16.672Z,9.39
2022-11-05T19:11:43.634Z,9.37
2022-11-05T19:14:10.312Z,9.35
2022-11-05T19:16:37.207Z,9.33
2022-11-05T19:19:05.243Z,9.33
2022-11-05T19:21:32.955Z,9.35
2022-11-05T19:24:17.086Z,9.36
2022-11-05T19:26:44.827Z,9.35
2022-11-05T19:29:11.791Z,9.35
2022-11-05T19:31:39.155Z,9.32
2022-11-05T19:34:21.593Z,9.31
2022-11-05T19:36:48.290Z,9.32
2022-11-05T19:39:15.477Z,9.31
2022-11-05T19:41:42.733Z,9.31
2022-11-05T19:44:10.491Z,9.31
2022-11-05T19:46:37.247Z,9.33
2022-11-05T19:49:04.016Z,9.36
2022-11-05T19:51:32.649Z,9.33
2022-11-05T19:54:01.041Z,9.32
2022-11-05T19:56:30.378Z,9.31
2022-11-05T19:58:58.894Z,9.31
2022-11-05T20:01:28.556Z,9.32
2022-11-05T20:03:57.592Z,9.33
2022-11-05T20:06:29.429Z,9.34
2022-11-05T20:09:20.628Z,9.35
2022-11-05T20:11:46.403Z,9.33
2022-11-05T20:14:13.455Z,9.32
2022-11-05T20:16:41.582Z,9.30
2022-11-05T20:19:11.620Z,9.30
2022-11-05T20:21:38.934Z,9.32
2022-11-05T20:24:06.259Z,9.34
2022-11-05T20:26:33.351Z,9.36
2022-11-05T20:29:01.156Z,9.35
2022-11-05T20:31:27.904Z,9.34
2022-11-05T20:33:54.647Z,9.34
2022-11-05T20:36:25.778Z,9.33
2022-11-05T20:38:55.425Z,9.31
2022-11-05T20:41:23.194Z,9.33
2022-11-05T20:43:50.112Z,9.34
2022-11-05T20:46:19.615Z,9.35
2022-11-05T20:48:46.601Z,9.35
2022-11-05T20:51:18.286Z,9.36
2022-11-05T20:53:48.385Z,9.35
2022-11-05T20:56:19.161Z,9.32
2022-11-05T20:58:46.954Z,9.32
2022-11-05T21:01:16.634Z,9.31
2022-11-05T21:03:44.780Z,9.32
2022-11-05T21:06:12.552Z,9.31
2022-11-05T21:08:55.675Z,9.31
2022-11-05T21:11:22.834Z,9.26
2022-11-05T21:13:49.626Z,9.22
2022-11-05T21:16:18.894Z,9.17
2022-11-05T21:18:46.797Z,9.16
2022-11-05T21:21:18.087Z,9.16
2022-11-05T21:23:44.811Z,9.17
2022-11-05T21:26:14.396Z,9.16
2022-11-05T21:28:41.930Z,9.14
2022-11-05T21:31:09.656Z,9.14
2022-11-05T21:33:36.362Z,9.13
2022-11-05T21:36:09.129Z,9.14
2022-11-05T21:38:35.984Z,9.17
2022-11-05T21:41:03.756Z,9.20
2022-11-05T21:43:30.614Z,9.23
2022-11-05T21:46:01.425Z,9.24
2022-11-05T21:48:28.390Z,9.25
2022-11-05T21:51:10.678Z,9.23
2022-11-05T21:53:53.995Z,9.23
2022-11-05T21:56:39.392Z,9.23
2022-11-05T21:59:23.940Z,9.25
2022-11-05T22:01:51.587Z,9.25
2022-11-05T22:04:18.728Z,9.25
2022-11-05T22:06:45.418Z,9.25
2022-11-05T22:09:12.108Z,9.23
2022-11-05T22:11:38.844Z,9.20
2022-11-05T22:14:05.784Z,9.15
2022-11-05T22:16:32.552Z,9.13
2022-11-05T22:18:59.917Z,9.12
2022-11-05T22:21:26.620Z,9.13
2022-11-05T22:23:53.636Z,9.14
2022-11-05T22:26:21.006Z,9.14
2022-11-05T22:28:47.915Z,9.15
2022-11-05T22:31:16.560Z,9.15
2022-11-05T22:33:43.988Z,9.13
2022-11-05T22:36:11.613Z,9.14
2022-11-05T22:38:39.030Z,9.14
2022-11-05T22:41:09.467Z,9.11
2022-11-05T22:43:36.547Z,9.08
2022-11-05T22:46:06.493Z,9.08
2022-11-05T22:48:35.154Z,9.09
2022-11-05T22:51:04.321Z,9.06
2022-11-05T22:53:31.567Z,9.07
2022-11-05T22:55:58.410Z,9.07
2022-11-05T22:58:25.229Z,9.07
2022-11-05T23:00:51.924Z,9.09
2022-11-05T23:03:19.093Z,9.11
2022-11-05T23:05:45.780Z,9.13
2022-11-05T23:08:28.050Z,9.14
2022-11-05T23:11:10.342Z,9.14
2022-11-05T23:13:37.056Z,9.08
2022-11-05T23:16:19.511Z,9.06
2022-11-05T23:19:02.342Z,9.01
2022-11-05T23:21:44.727Z,9.00
2022-11-05T23:24:13.288Z,8.99
2022-11-05T23:26:55.868Z,8.97
2022-11-05T23:29:25.894Z,8.97
2022-11-05T23:32:08.258Z,8.95
2022-11-05T23:34:35.539Z,8.92
2022-11-05T23:37:18.563Z,8.89
2022-11-05T23:39:45.283Z,8.88
2022-11-05T23:42:27.835Z,8.88
2022-11-05T23:45:14.427Z,8.85
2022-11-05T23:47:58.124Z,8.82
2022-11-05T23:50:26.124Z,8.79
2022-11-05T23:52:54.104Z,8.76
2022-11-05T23:55:22.210Z,8.75
2022-11-05T23:57:49.712Z,8.75
